createdAt,value
2022-08-22T00:01:41.592Z,4.45
2022-08-22T00:02:54.798Z,1.92
2022-08-22T00:05:10.961Z,3.97
2022-08-22T00:08:58.841Z,4.45
2022-08-22T00:12:42.073Z,4.70
2022-08-22T00:15:51.205Z,5.05
2022-08-22T00:19:17.185Z,4.63
2022-08-22T00:22:40.328Z,4.25
2022-08-22T00:26:15.502Z,4.32
2022-08-22T00:29:25.956Z,5.03
2022-08-22T00:32:38.630Z,4.45
2022-08-22T00:35:47.331Z,4.32
2022-08-22T00:39:03.102Z,4.57
2022-08-22T00:42:08.162Z,4.43
2022-08-22T00:45:30.014Z,4.47
2022-08-22T00:49:03.182Z,4.35
2022-08-22T00:52:24.165Z,4.85
2022-08-22T00:55:48.433Z,4.75
2022-08-22T00:59:27.640Z,4.43
2022-08-22T01:03:13.485Z,4.40
2022-08-22T01:06:52.812Z,4.50
2022-08-22T01:10:32.238Z,4.70
2022-08-22T01:14:13.008Z,4.68
2022-08-22T01:20:38.022Z,4.88
2022-08-22T01:24:04.205Z,5.43
2022-08-22T01:27:45.230Z,4.95
2022-08-22T01:31:25.857Z,5.43
2022-08-22T01:34:45.922Z,5.43
2022-08-22T01:38:05.702Z,5.18
2022-08-22T01:41:37.725Z,5.40
2022-08-22T01:44:51.412Z,5.35
2022-08-22T01:48:12.038Z,5.03
2022-08-22T01:51:43.171Z,5.28
2022-08-22T01:54:49.718Z,5.03
2022-08-22T01:58:01.129Z,5.85
2022-08-22T02:01:36.313Z,4.88
2022-08-22T02:05:23.103Z,5.13
2022-08-22T02:08:37.625Z,4.60
2022-08-22T02:12:22.509Z,4.70
2022-08-22T02:15:35.653Z,5.00
2022-08-22T02:18:52.670Z,4.32
2022-08-22T02:22:07.546Z,4.35
2022-08-22T02:25:25.638Z,4.70
2022-08-22T02:29:01.414Z,4.40
2022-08-22T02:32:08.150Z,4.72
2022-08-22T02:35:12.940Z,4.50
2022-08-22T02:38:43.055Z,4.60
2022-08-22T02:41:53.595Z,4.65
2022-08-22T02:45:26.347Z,4.50
2022-08-22T02:48:48.002Z,5.30
2022-08-22T02:52:21.191Z,4.75
2022-08-22T02:55:46.366Z,4.78
2022-08-22T02:59:12.405Z,5.25
2022-08-22T03:02:39.554Z,4.80
2022-08-22T03:05:52.302Z,6.25
2022-08-22T03:09:22.033Z,5.10
2022-08-22T03:12:48.050Z,6.13
2022-08-22T03:15:58.834Z,5.28
2022-08-22T03:22:23.641Z,5.32
2022-08-22T03:25:25.240Z,5.38
2022-08-22T03:28:59.493Z,5.10
2022-08-22T03:32:15.611Z,5.38
2022-08-22T03:35:50.871Z,5.47
2022-08-22T03:39:25.043Z,4.75
2022-08-22T03:42:53.816Z,4.65
2022-08-22T03:46:33.939Z,5.63
2022-08-22T03:49:41.511Z,5.25
2022-08-22T03:53:19.305Z,5.28
2022-08-22T03:56:45.931Z,4.88
2022-08-22T04:00:19.681Z,4.75
2022-08-22T04:03:55.260Z,5.10
2022-08-22T04:06:56.991Z,5.40
2022-08-22T04:10:25.442Z,4.95
2022-08-22T04:13:48.789Z,5.20
2022-08-22T04:17:17.854Z,4.75
2022-08-22T04:20:50.403Z,4.82
2022-08-22T04:23:57.889Z,5.03
2022-08-22T04:27:02.406Z,5.63
2022-08-22T04:30:32.594Z,5.70
2022-08-22T04:33:46.426Z,5.43
2022-08-22T04:36:57.965Z,5.85
2022-08-22T04:40:29.034Z,6.03
2022-08-22T04:43:41.085Z,6.32
2022-08-22T04:47:20.930Z,6.40
2022-08-22T04:50:29.678Z,5.53
2022-08-22T04:53:54.048Z,6.10
2022-08-22T04:57:14.570Z,6.22
2022-08-22T05:00:17.098Z,5.88
2022-08-22T05:03:24.355Z,6.18
2022-08-22T05:06:30.513Z,6.55
2022-08-22T05:09:37.509Z,6.47
2022-08-22T05:13:02.276Z,5.70
2022-08-22T05:16:09.017Z,6.47
2022-08-22T05:19:22.987Z,5.55
2022-08-22T05:22:34.541Z,5.75
2022-08-22T05:25:40.662Z,5.80
2022-08-22T05:28:53.380Z,5.50
2022-08-22T05:32:05.783Z,5.53
2022-08-22T05:35:09.926Z,5.88
2022-08-22T05:38:16.023Z,5.82
2022-08-22T05:41:23.858Z,6.13
2022-08-22T05:44:37.613Z,6.15
2022-08-22T05:47:47.029Z,5.82
2022-08-22T05:51:14.977Z,5.40
2022-08-22T05:54:21.716Z,5.32
2022-08-22T05:57:40.747Z,6.15
2022-08-22T06:00:47.981Z,5.47
2022-08-22T06:04:25.810Z,6.15
2022-08-22T06:07:27.567Z,5.80
2022-08-22T06:10:49.690Z,5.65
2022-08-22T06:13:57.948Z,6.38
2022-08-22T06:17:26.649Z,5.95
2022-08-22T06:20:52.648Z,5.72
2022-08-22T06:23:58.808Z,5.93
2022-08-22T06:27:09.135Z,5.82
2022-08-22T06:30:14.904Z,6.07
2022-08-22T06:33:21.868Z,5.95
2022-08-22T06:36:32.289Z,5.35
2022-08-22T06:39:42.096Z,6.22
2022-08-22T06:42:51.926Z,6.17
2022-08-22T06:45:53.833Z,5.70
2022-08-22T06:48:57.740Z,5.88
2022-08-22T06:52:07.287Z,5.63
2022-08-22T06:55:10.212Z,4.88
2022-08-22T06:58:20.551Z,4.78
2022-08-22T07:01:27.367Z,4.43
2022-08-22T07:04:30.186Z,4.28
2022-08-22T07:07:32.193Z,5.57
2022-08-22T07:10:34.679Z,4.38
2022-08-22T07:13:39.189Z,5.30
2022-08-22T07:17:09.634Z,5.55
2022-08-22T07:20:28.551Z,5.38
2022-08-22T07:23:39.921Z,5.38
2022-08-22T07:26:57.041Z,5.20
2022-08-22T07:30:12.944Z,5.78
2022-08-22T07:33:33.673Z,4.90
2022-08-22T07:40:24.166Z,4.35
2022-08-22T07:43:39.281Z,4.65
2022-08-22T07:47:13.383Z,3.88
2022-08-22T07:50:22.948Z,4.38
2022-08-22T07:54:11.500Z,3.93
2022-08-22T07:57:15.758Z,6.43
2022-08-22T08:00:21.269Z,4.13
2022-08-22T08:03:26.080Z,4.13
2022-08-22T08:06:28.499Z,4.60
2022-08-22T08:09:34.246Z,4.47
2022-08-22T08:12:57.938Z,3.88
2022-08-22T08:16:09.173Z,3.72
2022-08-22T08:19:12.991Z,4.43
2022-08-22T08:22:18.919Z,4.40
2022-08-22T08:25:26.158Z,4.20
2022-08-22T08:28:38.097Z,4.05
2022-08-22T08:31:43.361Z,3.83
2022-08-22T08:34:47.096Z,3.42
2022-08-22T08:38:07.903Z,3.35
2022-08-22T08:41:47.228Z,3.30
2022-08-22T08:45:28.898Z,4.00
2022-08-22T08:48:48.025Z,3.45
2022-08-22T08:52:24.487Z,3.47
2022-08-22T08:55:39.504Z,3.33
2022-08-22T08:58:54.721Z,3.50
2022-08-22T09:06:43.441Z,3.70
2022-08-22T09:10:19.066Z,4.70
2022-08-22T09:13:41.939Z,3.85
2022-08-22T09:17:02.673Z,4.43
2022-08-22T09:20:23.031Z,4.50
2022-08-22T09:23:57.372Z,4.55
2022-08-22T09:27:08.703Z,4.05
2022-08-22T09:30:19.816Z,3.28
2022-08-22T09:33:55.864Z,3.28
2022-08-22T09:37:22.757Z,2.70
2022-08-22T09:40:15.948Z,3.00
2022-08-22T09:40:34.329Z,3.10
2022-08-22T09:43:57.155Z,3.55
2022-08-22T09:47:06.769Z,2.60
2022-08-22T09:50:21.032Z,2.90
2022-08-22T09:53:45.321Z,2.85
2022-08-22T09:57:13.985Z,2.63
2022-08-22T10:00:22.861Z,3.20
2022-08-22T10:03:45.738Z,2.45
2022-08-22T10:07:13.421Z,3.55
2022-08-22T10:10:34.111Z,3.17
2022-08-22T10:14:13.283Z,3.03
2022-08-22T10:17:22.387Z,2.83
2022-08-22T10:20:58.376Z,2.50
2022-08-22T10:24:28.419Z,1.90
2022-08-22T10:27:32.558Z,2.05
2022-08-22T10:31:09.434Z,1.83
2022-08-22T10:34:20.165Z,1.77
2022-08-22T10:37:33.062Z,2.05
2022-08-22T10:40:57.072Z,2.05
2022-08-22T10:44:22.240Z,1.80
2022-08-22T10:47:35.670Z,1.98
2022-08-22T10:51:12.686Z,2.05
2022-08-22T10:54:45.453Z,1.70
2022-08-22T10:58:09.694Z,2.03
2022-08-22T11:01:38.020Z,1.60
2022-08-22T11:05:15.274Z,1.90
2022-08-22T11:08:29.034Z,2.00
2022-08-22T11:11:37.219Z,1.83
2022-08-22T11:14:48.343Z,1.70
2022-08-22T11:18:27.686Z,2.00
2022-08-22T11:22:10.139Z,1.90
2022-08-22T11:25:44.451Z,1.50
2022-08-22T11:29:24.049Z,1.85
2022-08-22T11:32:43.562Z,1.63
2022-08-22T11:36:12.087Z,2.00
2022-08-22T11:39:45.464Z,2.00
2022-08-22T11:43:18.313Z,1.85
2022-08-22T11:46:35.748Z,1.50
2022-08-22T11:49:51.681Z,1.80
2022-08-22T11:53:14.923Z,1.80
2022-08-22T11:56:22.549Z,1.33
2022-08-22T11:59:53.482Z,1.40
2022-08-22T12:03:23.174Z,1.48
2022-08-22T12:06:46.777Z,2.00
2022-08-22T12:10:19.521Z,1.73
2022-08-22T12:14:06.086Z,1.73
2022-08-22T12:17:55.729Z,1.80
2022-08-22T12:21:40.902Z,1.52
2022-08-22T12:25:05.489Z,1.70
2022-08-22T12:28:26.039Z,1.55
2022-08-22T12:31:48.549Z,1.42
2022-08-22T12:35:13.958Z,1.90
2022-08-22T12:38:51.581Z,1.63
2022-08-22T12:42:26.060Z,2.05
2022-08-22T12:45:35.299Z,1.80
2022-08-22T12:48:42.129Z,1.55
2022-08-22T12:52:12.106Z,2.10
2022-08-22T12:55:37.940Z,2.28
2022-08-22T12:59:17.927Z,1.45
2022-08-22T13:02:27.882Z,1.45
2022-08-22T13:05:34.358Z,1.88
2022-08-22T13:08:45.542Z,1.77
2022-08-22T13:11:55.083Z,1.67
2022-08-22T13:15:23.060Z,1.98
2022-08-22T13:18:31.201Z,1.80
2022-08-22T13:21:37.371Z,1.52
2022-08-22T13:24:51.690Z,1.75
2022-08-22T13:28:00.173Z,1.88
2022-08-22T13:31:03.818Z,1.92
2022-08-22T13:34:20.463Z,1.60
2022-08-22T13:37:50.208Z,1.50
2022-08-22T13:40:53.220Z,1.70
2022-08-22T13:44:22.221Z,1.58
2022-08-22T13:47:27.889Z,1.50
2022-08-22T13:50:53.584Z,1.90
2022-08-22T13:54:20.457Z,1.73
2022-08-22T13:57:44.819Z,1.70
2022-08-22T14:01:31.197Z,1.85
2022-08-22T14:04:43.016Z,1.77
2022-08-22T14:08:12.529Z,1.60
2022-08-22T14:11:51.209Z,1.70
2022-08-22T14:15:02.094Z,1.60
2022-08-22T14:18:13.920Z,1.75
2022-08-22T14:21:16.649Z,1.60
2022-08-22T14:24:56.620Z,1.77
2022-08-22T14:28:06.426Z,1.67
2022-08-22T14:31:14.327Z,1.70
2022-08-22T14:34:16.589Z,1.83
2022-08-22T14:37:40.958Z,1.63
2022-08-22T14:40:44.988Z,1.55
2022-08-22T14:44:04.999Z,1.63
2022-08-22T14:47:54.122Z,1.60
2022-08-22T14:50:44.002Z,1.45
2022-08-22T14:53:46.467Z,1.60
2022-08-22T14:56:51.852Z,2.08
2022-08-22T14:59:53.659Z,1.63
2022-08-22T15:03:10.853Z,1.77
2022-08-22T15:06:29.944Z,1.92
2022-08-22T15:09:52.125Z,1.50
2022-08-22T15:12:58.938Z,1.60
2022-08-22T15:16:14.248Z,1.60
2022-08-22T15:19:32.810Z,1.70
2022-08-22T15:22:35.763Z,1.60
2022-08-22T15:25:43.272Z,1.60
2022-08-22T15:29:22.235Z,1.60
2022-08-22T15:32:31.568Z,1.67
2022-08-22T15:35:38.993Z,1.50
2022-08-22T15:38:51.364Z,1.52
2022-08-22T15:41:55.430Z,1.42
2022-08-22T15:44:58.731Z,1.50
2022-08-22T15:48:04.483Z,1.55
2022-08-22T15:51:33.306Z,1.30
2022-08-22T15:54:51.034Z,1.67
2022-08-22T15:58:20.728Z,1.70
2022-08-22T16:04:49.350Z,1.38
2022-08-22T16:07:56.975Z,1.58
2022-08-22T16:11:01.915Z,1.52
2022-08-22T16:14:33.238Z,1.50
2022-08-22T16:17:44.419Z,1.48
2022-08-22T16:20:53.345Z,1.40
2022-08-22T16:23:58.430Z,1.50
2022-08-22T16:27:18.430Z,1.70
2022-08-22T16:30:33.357Z,1.50
2022-08-22T16:33:40.325Z,1.50
2022-08-22T16:36:51.827Z,1.50
2022-08-22T16:40:09.524Z,1.20
2022-08-22T16:43:19.669Z,1.67
2022-08-22T16:46:33.246Z,1.20
2022-08-22T16:49:59.824Z,1.38
2022-08-22T16:53:21.707Z,1.45
2022-08-22T16:56:30.027Z,1.20
2022-08-22T16:59:54.072Z,1.52
2022-08-22T17:03:14.876Z,1.70
2022-08-22T17:06:54.349Z,1.40
2022-08-22T17:13:09.754Z,1.30
2022-08-22T17:16:53.889Z,1.50
2022-08-22T17:20:08.309Z,1.52
2022-08-22T17:23:54.833Z,1.45
2022-08-22T17:27:05.869Z,1.33
2022-08-22T17:30:12.551Z,1.30
2022-08-22T17:33:52.282Z,1.20
2022-08-22T17:40:38.403Z,1.15
2022-08-22T17:43:59.029Z,1.25
2022-08-22T17:47:08.534Z,1.60
2022-08-22T17:50:13.238Z,1.30
2022-08-22T17:53:17.988Z,1.20
2022-08-22T17:57:00.466Z,1.63
2022-08-22T18:00:31.908Z,1.20
2022-08-22T18:03:37.919Z,1.70
2022-08-22T18:06:56.285Z,1.90
2022-08-22T18:10:26.413Z,1.42
2022-08-22T18:16:48.674Z,1.58
2022-08-22T18:19:57.777Z,1.48
2022-08-22T18:23:21.716Z,1.60
2022-08-22T18:27:00.023Z,1.50
2022-08-22T18:30:24.703Z,1.50
2022-08-22T18:33:40.329Z,1.40
2022-08-22T18:37:03.730Z,1.50
2022-08-22T18:40:13.718Z,1.63
2022-08-22T18:43:34.945Z,1.73
2022-08-22T18:46:44.097Z,1.50
2022-08-22T18:49:48.921Z,1.38
2022-08-22T18:52:53.476Z,1.30
2022-08-22T18:56:12.360Z,1.50
2022-08-22T18:59:38.873Z,1.63
2022-08-22T19:03:17.253Z,1.88
2022-08-22T19:06:40.644Z,1.60
2022-08-22T19:10:03.969Z,1.48
2022-08-22T19:13:43.401Z,1.55
2022-08-22T19:17:16.231Z,1.50
2022-08-22T19:20:46.152Z,1.83
2022-08-22T19:23:50.463Z,1.50
2022-08-22T19:27:07.317Z,1.58
2022-08-22T19:30:48.920Z,1.50
2022-08-22T19:34:16.501Z,1.80
2022-08-22T19:37:31.753Z,1.50
2022-08-22T19:40:50.406Z,2.10
2022-08-22T19:43:52.343Z,1.80
2022-08-22T19:47:24.259Z,2.00
2022-08-22T19:50:31.099Z,2.90
2022-08-22T19:53:41.725Z,1.90
2022-08-22T19:57:10.221Z,2.03
2022-08-22T20:00:14.288Z,2.38
2022-08-22T20:03:23.395Z,2.00
2022-08-22T20:06:43.422Z,2.25
2022-08-22T20:10:04.630Z,2.15
2022-08-22T20:13:25.980Z,2.45
2022-08-22T20:17:05.501Z,2.17
2022-08-22T20:20:35.494Z,2.00
2022-08-22T20:23:37.886Z,1.80
2022-08-22T20:26:57.635Z,2.28
2022-08-22T20:30:07.872Z,2.15
2022-08-22T20:33:20.641Z,2.03
2022-08-22T20:36:28.544Z,2.25
2022-08-22T20:39:50.918Z,1.92
2022-08-22T20:43:10.390Z,1.83
2022-08-22T20:46:34.463Z,1.90
2022-08-22T20:49:42.522Z,1.85
2022-08-22T20:52:51.811Z,2.10
2022-08-22T20:55:55.908Z,2.10
2022-08-22T20:59:01.033Z,1.92
2022-08-22T21:02:15.041Z,2.15
2022-08-22T21:05:22.499Z,2.10
2022-08-22T21:08:26.724Z,2.00
2022-08-22T21:11:43.618Z,2.20
2022-08-22T21:14:48.861Z,2.28
2022-08-22T21:17:50.957Z,2.08
2022-08-22T21:20:53.381Z,2.38
2022-08-22T21:24:04.163Z,2.17
2022-08-22T21:27:06.641Z,2.30
2022-08-22T21:30:09.814Z,2.15
2022-08-22T21:33:24.068Z,1.90
2022-08-22T21:36:29.710Z,2.30
2022-08-22T21:39:42.396Z,1.90
2022-08-22T21:42:58.356Z,2.63
2022-08-22T21:46:00.273Z,2.20
2022-08-22T21:49:05.298Z,2.10
2022-08-22T21:52:07.037Z,2.40
2022-08-22T21:55:34.540Z,2.33
2022-08-22T21:58:38.814Z,2.00
2022-08-22T22:01:42.776Z,2.22
2022-08-22T22:04:47.635Z,2.05
2022-08-22T22:07:49.363Z,1.80
2022-08-22T22:10:54.322Z,1.95
2022-08-22T22:13:56.054Z,1.98
2022-08-22T22:16:57.679Z,2.25
2022-08-22T22:19:59.328Z,2.00
2022-08-22T22:23:01.030Z,2.15
2022-08-22T22:26:04.757Z,2.10
2022-08-22T22:29:07.861Z,2.28
2022-08-22T22:32:10.700Z,2.33
2022-08-22T22:35:13.614Z,2.42
2022-08-22T22:38:20.566Z,2.15
2022-08-22T22:41:25.930Z,2.45
2022-08-22T22:44:27.588Z,2.08
2022-08-22T22:47:31.831Z,2.22
2022-08-22T22:50:35.713Z,2.20
2022-08-22T22:53:43.075Z,1.98
2022-08-22T22:56:48.008Z,2.05
2022-08-22T22:59:49.948Z,2.05
2022-08-22T23:02:52.936Z,2.13
2022-08-22T23:05:54.592Z,2.22
2022-08-22T23:08:56.640Z,2.05
2022-08-22T23:11:58.540Z,2.05
2022-08-22T23:15:00.218Z,2.00
2022-08-22T23:18:02.464Z,2.30
2022-08-22T23:21:14.594Z,2.00
2022-08-22T23:24:17.312Z,1.80
2022-08-22T23:27:19.086Z,2.25
2022-08-22T23:30:21.442Z,2.25
2022-08-22T23:33:23.305Z,1.95
2022-08-22T23:36:24.977Z,2.13
2022-08-22T23:39:28.656Z,2.30
2022-08-22T23:42:30.539Z,2.10
2022-08-22T23:45:32.365Z,2.60
2022-08-22T23:48:34.063Z,2.00
2022-08-22T23:51:37.274Z,2.15
2022-08-22T23:54:38.994Z,2.30
2022-08-22T23:57:40.610Z,2.08
